sensor_id;sensor_type;location;lat;lon;timestamp;P1;durP1;ratioP1;P2;durP2;ratioP2
62616;SDS011;76316;51.190;6.808;2024-02-15T00:02:03;1.65;;;0.77;;
62616;SDS011;76316;51.190;6.808;2024-02-15T00:04:29;0.88;;;0.60;;
62616;SDS011;76316;51.190;6.808;2024-02-15T00:06:54;1.13;;;0.65;;
62616;SDS011;76316;51.190;6.808;2024-02-15T00:09:19;2.50;;;0.80;;
62616;SDS011;76316;51.190;6.808;2024-02-15T00:11:45;2.65;;;0.68;;
62616;SDS011;76316;51.190;6.808;2024-02-15T00:14:10;1.88;;;0.60;;
62616;SDS011;76316;51.190;6.808;2024-02-15T00:16:37;1.27;;;0.73;;
62616;SDS011;76316;51.190;6.808;2024-02-15T00:19:02;1.27;;;0.80;;
62616;SDS011;76316;51.190;6.808;2024-02-15T00:21:27;0.63;;;0.60;;
62616;SDS011;76316;51.190;6.808;2024-02-15T00:23:53;3.80;;;0.70;;
62616;SDS011;76316;51.190;6.808;2024-02-15T00:26:20;3.20;;;0.68;;
62616;SDS011;76316;51.190;6.808;2024-02-15T00:28:46;1.33;;;0.60;;
62616;SDS011;76316;51.190;6.808;2024-02-15T00:31:13;0.95;;;0.60;;
62616;SDS011;76316;51.190;6.808;2024-02-15T00:33:38;1.15;;;0.70;;
62616;SDS011;76316;51.190;6.808;2024-02-15T00:36:04;2.55;;;0.70;;
62616;SDS011;76316;51.190;6.808;2024-02-15T00:38:33;2.88;;;0.55;;
62616;SDS011;76316;51.190;6.808;2024-02-15T00:40:59;1.75;;;0.60;;
62616;SDS011;76316;51.190;6.808;2024-02-15T00:43:26;0.98;;;0.70;;
62616;SDS011;76316;51.190;6.808;2024-02-15T00:45:52;2.20;;;0.70;;
62616;SDS011;76316;51.190;6.808;2024-02-15T00:48:18;0.60;;;0.57;;
62616;SDS011;76316;51.190;6.808;2024-02-15T00:50:43;1.80;;;0.70;;
62616;SDS011;76316;51.190;6.808;2024-02-15T00:53:09;1.40;;;0.77;;
62616;SDS011;76316;51.190;6.808;2024-02-15T00:55:34;1.08;;;0.70;;
62616;SDS011;76316;51.190;6.808;2024-02-15T00:57:59;1.33;;;0.60;;
62616;SDS011;76316;51.190;6.808;2024-02-15T01:00:25;1.42;;;0.70;;
62616;SDS011;76316;51.190;6.808;2024-02-15T01:02:51;2.75;;;0.70;;
62616;SDS011;76316;51.190;6.808;2024-02-15T01:05:17;0.50;;;0.50;;
62616;SDS011;76316;51.190;6.808;2024-02-15T01:07:43;0.75;;;0.60;;
62616;SDS011;76316;51.190;6.808;2024-02-15T01:10:09;1.48;;;0.70;;
62616;SDS011;76316;51.190;6.808;2024-02-15T01:12:34;0.90;;;0.60;;
62616;SDS011;76316;51.190;6.808;2024-02-15T01:15:00;4.60;;;0.80;;
62616;SDS011;76316;51.190;6.808;2024-02-15T01:17:26;0.60;;;0.60;;
62616;SDS011;76316;51.190;6.808;2024-02-15T01:19:51;1.30;;;0.70;;
62616;SDS011;76316;51.190;6.808;2024-02-15T01:22:18;0.75;;;0.52;;
62616;SDS011;76316;51.190;6.808;2024-02-15T01:24:45;1.10;;;0.65;;
62616;SDS011;76316;51.190;6.808;2024-02-15T01:27:10;1.75;;;0.68;;
62616;SDS011;76316;51.190;6.808;2024-02-15T01:29:36;1.10;;;0.60;;
62616;SDS011;76316;51.190;6.808;2024-02-15T01:32:01;0.93;;;0.60;;
62616;SDS011;76316;51.190;6.808;2024-02-15T01:34:27;0.73;;;0.60;;
62616;SDS011;76316;51.190;6.808;2024-02-15T01:36:53;0.70;;;0.55;;
62616;SDS011;76316;51.190;6.808;2024-02-15T01:39:19;2.10;;;0.70;;
62616;SDS011;76316;51.190;6.808;2024-02-15T01:41:48;0.60;;;0.60;;
62616;SDS011;76316;51.190;6.808;2024-02-15T01:44:20;1.40;;;0.65;;
62616;SDS011;76316;51.190;6.808;2024-02-15T01:46:49;0.70;;;0.68;;
62616;SDS011;76316;51.190;6.808;2024-02-15T01:49:20;2.40;;;0.60;;
62616;SDS011;76316;51.190;6.808;2024-02-15T01:51:47;0.80;;;0.60;;
62616;SDS011;76316;51.190;6.808;2024-02-15T01:54:21;0.77;;;0.50;;
62616;SDS011;76316;51.190;6.808;2024-02-15T01:56:48;0.68;;;0.63;;
62616;SDS011;76316;51.190;6.808;2024-02-15T01:59:15;1.17;;;0.68;;
62616;SDS011;76316;51.190;6.808;2024-02-15T02:01:41;1.27;;;0.60;;
62616;SDS011;76316;51.190;6.808;2024-02-15T02:04:08;1.83;;;0.63;;
62616;SDS011;76316;51.190;6.808;2024-02-15T02:06:34;1.45;;;0.75;;
62616;SDS011;76316;51.190;6.808;2024-02-15T02:09:02;0.63;;;0.63;;
62616;SDS011;76316;51.190;6.808;2024-02-15T02:11:28;1.83;;;0.70;;
62616;SDS011;76316;51.190;6.808;2024-02-15T02:13:54;1.30;;;0.70;;
62616;SDS011;76316;51.190;6.808;2024-02-15T02:16:27;0.50;;;0.50;;
62616;SDS011;76316;51.190;6.808;2024-02-15T02:18:55;1.23;;;0.73;;
62616;SDS011;76316;51.190;6.808;2024-02-15T02:21:23;0.73;;;0.65;;
62616;SDS011;76316;51.190;6.808;2024-02-15T02:23:57;1.25;;;0.68;;
62616;SDS011;76316;51.190;6.808;2024-02-15T02:26:24;1.17;;;0.70;;
62616;SDS011;76316;51.190;6.808;2024-02-15T02:28:50;0.50;;;0.50;;
62616;SDS011;76316;51.190;6.808;2024-02-15T02:31:19;0.65;;;0.63;;
62616;SDS011;76316;51.190;6.808;2024-02-15T02:33:50;0.67;;;0.50;;
62616;SDS011;76316;51.190;6.808;2024-02-15T02:36:21;0.80;;;0.60;;
62616;SDS011;76316;51.190;6.808;2024-02-15T02:38:46;1.67;;;0.60;;
62616;SDS011;76316;51.190;6.808;2024-02-15T02:41:14;0.60;;;0.60;;
62616;SDS011;76316;51.190;6.808;2024-02-15T02:43:41;1.30;;;0.52;;
62616;SDS011;76316;51.190;6.808;2024-02-15T02:46:09;0.60;;;0.60;;
62616;SDS011;76316;51.190;6.808;2024-02-15T02:48:36;0.82;;;0.60;;
62616;SDS011;76316;51.190;6.808;2024-02-15T02:51:02;0.82;;;0.50;;
62616;SDS011;76316;51.190;6.808;2024-02-15T02:53:28;2.60;;;0.70;;
62616;SDS011;76316;51.190;6.808;2024-02-15T02:55:54;0.60;;;0.55;;
62616;SDS011;76316;51.190;6.808;2024-02-15T02:58:21;0.60;;;0.60;;
62616;SDS011;76316;51.190;6.808;2024-02-15T03:00:48;0.55;;;0.50;;
62616;SDS011;76316;51.190;6.808;2024-02-15T03:03:14;0.55;;;0.55;;
62616;SDS011;76316;51.190;6.808;2024-02-15T03:05:40;0.60;;;0.60;;
62616;SDS011;76316;51.190;6.808;2024-02-15T03:08:08;2.03;;;0.73;;
62616;SDS011;76316;51.190;6.808;2024-02-15T03:10:34;0.55;;;0.50;;
62616;SDS011;76316;51.190;6.808;2024-02-15T03:12:59;0.70;;;0.55;;
62616;SDS011;76316;51.190;6.808;2024-02-15T03:15:25;1.02;;;0.63;;
62616;SDS011;76316;51.190;6.808;2024-02-15T03:17:51;1.15;;;0.68;;
62616;SDS011;76316;51.190;6.808;2024-02-15T03:20:16;0.60;;;0.60;;
62616;SDS011;76316;51.190;6.808;2024-02-15T03:25:22;0.80;;;0.57;;
62616;SDS011;76316;51.190;6.808;2024-02-15T03:27:49;2.40;;;0.60;;
62616;SDS011;76316;51.190;6.808;2024-02-15T03:30:18;1.83;;;0.60;;
62616;SDS011;76316;51.190;6.808;2024-02-15T03:32:44;0.85;;;0.70;;
62616;SDS011;76316;51.190;6.808;2024-02-15T03:35:13;2.83;;;0.70;;
62616;SDS011;76316;51.190;6.808;2024-02-15T03:37:40;1.63;;;0.68;;
62616;SDS011;76316;51.190;6.808;2024-02-15T03:40:06;1.20;;;0.60;;
62616;SDS011;76316;51.190;6.808;2024-02-15T03:42:33;0.50;;;0.50;;
62616;SDS011;76316;51.190;6.808;2024-02-15T03:45:02;0.60;;;0.60;;
62616;SDS011;76316;51.190;6.808;2024-02-15T03:47:33;1.00;;;0.70;;
62616;SDS011;76316;51.190;6.808;2024-02-15T03:50:06;0.90;;;0.47;;
62616;SDS011;76316;51.190;6.808;2024-02-15T03:52:37;0.40;;;0.40;;
62616;SDS011;76316;51.190;6.808;2024-02-15T03:55:06;0.95;;;0.60;;
62616;SDS011;76316;51.190;6.808;2024-02-15T03:57:32;0.90;;;0.65;;
62616;SDS011;76316;51.190;6.808;2024-02-15T03:59:58;0.47;;;0.47;;
62616;SDS011;76316;51.190;6.808;2024-02-15T04:02:24;0.50;;;0.50;;
62616;SDS011;76316;51.190;6.808;2024-02-15T04:07:24;0.47;;;0.47;;
62616;SDS011;76316;51.190;6.808;2024-02-15T04:09:51;1.10;;;0.80;;
62616;SDS011;76316;51.190;6.808;2024-02-15T04:12:20;0.55;;;0.55;;
62616;SDS011;76316;51.190;6.808;2024-02-15T04:14:46;0.43;;;0.43;;
62616;SDS011;76316;51.190;6.808;2024-02-15T04:17:12;0.90;;;0.55;;
62616;SDS011;76316;51.190;6.808;2024-02-15T04:19:47;0.52;;;0.45;;
62616;SDS011;76316;51.190;6.808;2024-02-15T04:22:15;0.57;;;0.50;;
62616;SDS011;76316;51.190;6.808;2024-02-15T04:24:41;0.40;;;0.40;;
62616;SDS011;76316;51.190;6.808;2024-02-15T04:27:10;0.95;;;0.60;;
62616;SDS011;76316;51.190;6.808;2024-02-15T04:29:39;0.52;;;0.40;;
62616;SDS011;76316;51.190;6.808;2024-02-15T04:32:09;0.50;;;0.50;;
62616;SDS011;76316;51.190;6.808;2024-02-15T04:34:36;1.20;;;0.50;;
62616;SDS011;76316;51.190;6.808;2024-02-15T04:37:02;0.98;;;0.40;;
62616;SDS011;76316;51.190;6.808;2024-02-15T04:39:35;0.82;;;0.50;;
62616;SDS011;76316;51.190;6.808;2024-02-15T04:42:04;0.80;;;0.60;;
62616;SDS011;76316;51.190;6.808;2024-02-15T04:44:37;1.33;;;0.40;;
62616;SDS011;76316;51.190;6.808;2024-02-15T04:47:04;1.85;;;0.65;;
62616;SDS011;76316;51.190;6.808;2024-02-15T04:49:30;0.80;;;0.50;;
62616;SDS011;76316;51.190;6.808;2024-02-15T04:51:55;0.73;;;0.52;;
62616;SDS011;76316;51.190;6.808;2024-02-15T04:54:22;0.52;;;0.40;;
62616;SDS011;76316;51.190;6.808;2024-02-15T04:56:48;0.50;;;0.50;;
62616;SDS011;76316;51.190;6.808;2024-02-15T04:59:15;0.50;;;0.50;;
62616;SDS011;76316;51.190;6.808;2024-02-15T05:01:41;0.63;;;0.50;;
62616;SDS011;76316;51.190;6.808;2024-02-15T05:04:08;0.98;;;0.52;;
62616;SDS011;76316;51.190;6.808;2024-02-15T05:06:35;1.35;;;0.50;;
62616;SDS011;76316;51.190;6.808;2024-02-15T05:09:01;0.70;;;0.60;;
62616;SDS011;76316;51.190;6.808;2024-02-15T05:11:32;0.63;;;0.52;;
62616;SDS011;76316;51.190;6.808;2024-02-15T05:14:01;0.70;;;0.70;;
62616;SDS011;76316;51.190;6.808;2024-02-15T05:16:32;0.60;;;0.60;;
62616;SDS011;76316;51.190;6.808;2024-02-15T05:18:58;0.57;;;0.50;;
62616;SDS011;76316;51.190;6.808;2024-02-15T05:21:24;1.58;;;0.57;;
62616;SDS011;76316;51.190;6.808;2024-02-15T05:23:49;0.68;;;0.57;;
62616;SDS011;76316;51.190;6.808;2024-02-15T05:26:14;1.88;;;0.50;;
62616;SDS011;76316;51.190;6.808;2024-02-15T05:31:11;0.68;;;0.60;;
62616;SDS011;76316;51.190;6.808;2024-02-15T05:33:43;2.38;;;0.70;;
62616;SDS011;76316;51.190;6.808;2024-02-15T05:36:12;1.30;;;0.65;;
62616;SDS011;76316;51.190;6.808;2024-02-15T05:38:39;0.50;;;0.50;;
62616;SDS011;76316;51.190;6.808;2024-02-15T05:41:06;0.95;;;0.52;;
62616;SDS011;76316;51.190;6.808;2024-02-15T05:43:33;1.00;;;0.50;;
62616;SDS011;76316;51.190;6.808;2024-02-15T05:46:01;0.70;;;0.60;;
62616;SDS011;76316;51.190;6.808;2024-02-15T05:48:31;1.13;;;0.60;;
62616;SDS011;76316;51.190;6.808;2024-02-15T05:51:00;1.15;;;0.60;;
62616;SDS011;76316;51.190;6.808;2024-02-15T05:53:26;0.85;;;0.52;;
62616;SDS011;76316;51.190;6.808;2024-02-15T05:55:51;1.10;;;0.60;;
62616;SDS011;76316;51.190;6.808;2024-02-15T05:58:17;3.42;;;0.60;;
62616;SDS011;76316;51.190;6.808;2024-02-15T06:00:42;0.80;;;0.55;;
62616;SDS011;76316;51.190;6.808;2024-02-15T06:03:09;6.38;;;0.70;;
62616;SDS011;76316;51.190;6.808;2024-02-15T06:05:38;5.78;;;0.50;;
62616;SDS011;76316;51.190;6.808;2024-02-15T06:08:05;4.35;;;1.08;;
62616;SDS011;76316;51.190;6.808;2024-02-15T06:10:31;7.63;;;0.77;;
62616;SDS011;76316;51.190;6.808;2024-02-15T06:12:57;0.98;;;0.50;;
62616;SDS011;76316;51.190;6.808;2024-02-15T06:15:26;0.40;;;0.40;;
62616;SDS011;76316;51.190;6.808;2024-02-15T06:17:51;5.32;;;0.60;;
62616;SDS011;76316;51.190;6.808;2024-02-15T06:20:17;1.30;;;0.60;;
62616;SDS011;76316;51.190;6.808;2024-02-15T06:22:44;3.97;;;0.70;;
62616;SDS011;76316;51.190;6.808;2024-02-15T06:25:13;7.65;;;0.60;;
62616;SDS011;76316;51.190;6.808;2024-02-15T06:27:40;2.53;;;0.70;;
62616;SDS011;76316;51.190;6.808;2024-02-15T06:30:11;4.95;;;0.70;;
62616;SDS011;76316;51.190;6.808;2024-02-15T06:32:56;9.18;;;0.80;;
62616;SDS011;76316;51.190;6.808;2024-02-15T06:35:41;2.28;;;0.65;;
62616;SDS011;76316;51.190;6.808;2024-02-15T06:38:26;11.65;;;0.90;;
62616;SDS011;76316;51.190;6.808;2024-02-15T06:41:10;3.58;;;0.70;;
62616;SDS011;76316;51.190;6.808;2024-02-15T06:43:35;2.45;;;0.70;;
62616;SDS011;76316;51.190;6.808;2024-02-15T06:46:02;1.45;;;0.80;;
62616;SDS011;76316;51.190;6.808;2024-02-15T06:48:31;4.82;;;0.90;;
62616;SDS011;76316;51.190;6.808;2024-02-15T06:50:56;1.73;;;0.70;;
62616;SDS011;76316;51.190;6.808;2024-02-15T06:53:22;2.60;;;0.63;;
62616;SDS011;76316;51.190;6.808;2024-02-15T06:55:49;7.60;;;0.90;;
62616;SDS011;76316;51.190;6.808;2024-02-15T06:58:15;1.77;;;0.70;;
62616;SDS011;76316;51.190;6.808;2024-02-15T07:00:42;3.33;;;0.80;;
62616;SDS011;76316;51.190;6.808;2024-02-15T07:03:08;2.05;;;0.65;;
62616;SDS011;76316;51.190;6.808;2024-02-15T07:05:35;1.20;;;0.63;;
62616;SDS011;76316;51.190;6.808;2024-02-15T07:08:03;0.60;;;0.60;;
62616;SDS011;76316;51.190;6.808;2024-02-15T07:10:30;2.15;;;0.70;;
62616;SDS011;76316;51.190;6.808;2024-02-15T07:12:56;1.60;;;0.47;;
62616;SDS011;76316;51.190;6.808;2024-02-15T07:15:22;1.88;;;0.70;;
62616;SDS011;76316;51.190;6.808;2024-02-15T07:17:48;2.05;;;0.43;;
62616;SDS011;76316;51.190;6.808;2024-02-15T07:20:13;1.45;;;0.70;;
62616;SDS011;76316;51.190;6.808;2024-02-15T07:22:42;1.77;;;0.50;;
62616;SDS011;76316;51.190;6.808;2024-02-15T07:25:10;0.93;;;0.63;;
62616;SDS011;76316;51.190;6.808;2024-02-15T07:27:36;1.05;;;0.60;;
62616;SDS011;76316;51.190;6.808;2024-02-15T07:30:01;4.07;;;0.70;;
62616;SDS011;76316;51.190;6.808;2024-02-15T07:32:29;1.63;;;0.70;;
62616;SDS011;76316;51.190;6.808;2024-02-15T07:34:56;1.13;;;0.60;;
62616;SDS011;76316;51.190;6.808;2024-02-15T07:37:22;0.95;;;0.70;;
62616;SDS011;76316;51.190;6.808;2024-02-15T07:39:51;1.25;;;0.75;;
62616;SDS011;76316;51.190;6.808;2024-02-15T07:42:17;0.63;;;0.47;;
62616;SDS011;76316;51.190;6.808;2024-02-15T07:44:42;0.43;;;0.43;;
62616;SDS011;76316;51.190;6.808;2024-02-15T07:47:08;0.38;;;0.38;;
62616;SDS011;76316;51.190;6.808;2024-02-15T07:49:35;4.85;;;0.60;;
62616;SDS011;76316;51.190;6.808;2024-02-15T07:52:01;2.88;;;0.60;;
62616;SDS011;76316;51.190;6.808;2024-02-15T07:54:29;2.13;;;0.80;;
62616;SDS011;76316;51.190;6.808;2024-02-15T07:56:58;2.75;;;0.70;;
62616;SDS011;76316;51.190;6.808;2024-02-15T07:59:23;4.28;;;0.60;;
62616;SDS011;76316;51.190;6.808;2024-02-15T08:01:49;0.60;;;0.60;;
62616;SDS011;76316;51.190;6.808;2024-02-15T08:04:18;1.13;;;0.55;;
62616;SDS011;76316;51.190;6.808;2024-02-15T08:06:45;0.88;;;0.40;;
62616;SDS011;76316;51.190;6.808;2024-02-15T08:09:12;0.98;;;0.50;;
62616;SDS011;76316;51.190;6.808;2024-02-15T08:11:41;0.95;;;0.60;;
62616;SDS011;76316;51.190;6.808;2024-02-15T08:14:07;2.72;;;0.73;;
62616;SDS011;76316;51.190;6.808;2024-02-15T08:16:35;0.68;;;0.50;;
62616;SDS011;76316;51.190;6.808;2024-02-15T08:19:02;3.30;;;0.90;;
62616;SDS011;76316;51.190;6.808;2024-02-15T08:21:30;5.60;;;0.60;;
62616;SDS011;76316;51.190;6.808;2024-02-15T08:24:06;1.65;;;0.70;;
62616;SDS011;76316;51.190;6.808;2024-02-15T08:29:04;2.97;;;0.80;;
62616;SDS011;76316;51.190;6.808;2024-02-15T08:31:34;3.78;;;0.70;;
62616;SDS011;76316;51.190;6.808;2024-02-15T08:34:00;0.90;;;0.68;;
62616;SDS011;76316;51.190;6.808;2024-02-15T08:36:27;0.50;;;0.40;;
62616;SDS011;76316;51.190;6.808;2024-02-15T08:38:55;2.90;;;0.50;;
62616;SDS011;76316;51.190;6.808;2024-02-15T08:41:20;0.85;;;0.60;;
62616;SDS011;76316;51.190;6.808;2024-02-15T08:43:48;2.90;;;0.70;;
62616;SDS011;76316;51.190;6.808;2024-02-15T08:46:14;1.20;;;0.60;;
62616;SDS011;76316;51.190;6.808;2024-02-15T08:48:40;0.88;;;0.47;;
62616;SDS011;76316;51.190;6.808;2024-02-15T08:51:05;0.40;;;0.40;;
62616;SDS011;76316;51.190;6.808;2024-02-15T08:53:33;0.43;;;0.43;;
62616;SDS011;76316;51.190;6.808;2024-02-15T08:56:01;5.95;;;0.80;;
62616;SDS011;76316;51.190;6.808;2024-02-15T08:58:28;0.82;;;0.50;;
62616;SDS011;76316;51.190;6.808;2024-02-15T09:00:55;0.70;;;0.52;;
62616;SDS011;76316;51.190;6.808;2024-02-15T09:03:23;0.75;;;0.60;;
62616;SDS011;76316;51.190;6.808;2024-02-15T09:05:49;1.67;;;0.60;;
62616;SDS011;76316;51.190;6.808;2024-02-15T09:08:15;1.08;;;0.60;;
62616;SDS011;76316;51.190;6.808;2024-02-15T09:10:44;1.10;;;0.50;;
62616;SDS011;76316;51.190;6.808;2024-02-15T09:13:10;0.80;;;0.50;;
62616;SDS011;76316;51.190;6.808;2024-02-15T09:15:35;1.67;;;0.70;;
62616;SDS011;76316;51.190;6.808;2024-02-15T09:18:01;2.20;;;0.57;;
62616;SDS011;76316;51.190;6.808;2024-02-15T09:20:26;1.48;;;0.68;;
62616;SDS011;76316;51.190;6.808;2024-02-15T09:22:56;1.57;;;0.60;;
62616;SDS011;76316;51.190;6.808;2024-02-15T09:25:22;1.85;;;0.52;;
62616;SDS011;76316;51.190;6.808;2024-02-15T09:27:48;1.48;;;0.55;;
62616;SDS011;76316;51.190;6.808;2024-02-15T09:30:15;1.73;;;0.80;;
62616;SDS011;76316;51.190;6.808;2024-02-15T09:32:43;0.40;;;0.40;;
62616;SDS011;76316;51.190;6.808;2024-02-15T09:35:09;1.70;;;0.60;;
62616;SDS011;76316;51.190;6.808;2024-02-15T09:37:43;0.57;;;0.40;;
62616;SDS011;76316;51.190;6.808;2024-02-15T09:40:11;1.95;;;0.60;;
62616;SDS011;76316;51.190;6.808;2024-02-15T09:42:38;1.10;;;0.40;;
62616;SDS011;76316;51.190;6.808;2024-02-15T09:45:08;1.33;;;0.73;;
62616;SDS011;76316;51.190;6.808;2024-02-15T09:47:38;0.95;;;0.60;;
62616;SDS011;76316;51.190;6.808;2024-02-15T09:50:24;0.80;;;0.60;;
62616;SDS011;76316;51.190;6.808;2024-02-15T09:52:58;0.70;;;0.52;;
62616;SDS011;76316;51.190;6.808;2024-02-15T09:55:26;0.82;;;0.60;;
62616;SDS011;76316;51.190;6.808;2024-02-15T09:57:54;1.17;;;0.70;;
62616;SDS011;76316;51.190;6.808;2024-02-15T10:00:20;0.63;;;0.50;;
62616;SDS011;76316;51.190;6.808;2024-02-15T10:02:52;0.45;;;0.45;;
62616;SDS011;76316;51.190;6.808;2024-02-15T10:05:18;0.60;;;0.60;;
62616;SDS011;76316;51.190;6.808;2024-02-15T10:07:44;2.67;;;0.60;;
62616;SDS011;76316;51.190;6.808;2024-02-15T10:10:14;0.85;;;0.60;;
62616;SDS011;76316;51.190;6.808;2024-02-15T10:12:48;2.60;;;0.73;;
62616;SDS011;76316;51.190;6.808;2024-02-15T10:15:36;2.25;;;0.68;;
62616;SDS011;76316;51.190;6.808;2024-02-15T10:18:10;1.10;;;0.60;;
62616;SDS011;76316;51.190;6.808;2024-02-15T10:20:40;0.52;;;0.52;;
62616;SDS011;76316;51.190;6.808;2024-02-15T10:23:13;0.80;;;0.50;;
62616;SDS011;76316;51.190;6.808;2024-02-15T10:25:42;1.85;;;0.80;;
62616;SDS011;76316;51.190;6.808;2024-02-15T10:28:11;4.57;;;0.68;;
62616;SDS011;76316;51.190;6.808;2024-02-15T10:30:40;1.35;;;0.52;;
62616;SDS011;76316;51.190;6.808;2024-02-15T10:33:09;0.68;;;0.55;;
62616;SDS011;76316;51.190;6.808;2024-02-15T10:38:51;1.30;;;0.60;;
62616;SDS011;76316;51.190;6.808;2024-02-15T10:41:16;3.40;;;0.60;;
62616;SDS011;76316;51.190;6.808;2024-02-15T10:43:42;0.82;;;0.60;;
62616;SDS011;76316;51.190;6.808;2024-02-15T10:46:10;0.95;;;0.57;;
62616;SDS011;76316;51.190;6.808;2024-02-15T10:48:37;3.83;;;0.63;;
62616;SDS011;76316;51.190;6.808;2024-02-15T10:51:03;1.70;;;0.60;;
62616;SDS011;76316;51.190;6.808;2024-02-15T10:53:35;0.40;;;0.40;;
62616;SDS011;76316;51.190;6.808;2024-02-15T10:56:15;0.82;;;0.60;;
62616;SDS011;76316;51.190;6.808;2024-02-15T10:58:55;0.52;;;0.52;;
62616;SDS011;76316;51.190;6.808;2024-02-15T11:01:49;1.80;;;0.80;;
62616;SDS011;76316;51.190;6.808;2024-02-15T11:04:19;3.22;;;0.60;;
62616;SDS011;76316;51.190;6.808;2024-02-15T11:06:50;1.90;;;0.60;;
62616;SDS011;76316;51.190;6.808;2024-02-15T11:09:20;1.65;;;0.55;;
62616;SDS011;76316;51.190;6.808;2024-02-15T11:11:47;1.40;;;0.75;;
62616;SDS011;76316;51.190;6.808;2024-02-15T11:14:29;1.40;;;0.80;;
62616;SDS011;76316;51.190;6.808;2024-02-15T11:17:00;1.63;;;0.60;;
62616;SDS011;76316;51.190;6.808;2024-02-15T11:22:10;1.60;;;0.70;;
62616;SDS011;76316;51.190;6.808;2024-02-15T11:24:49;2.05;;;0.68;;
62616;SDS011;76316;51.190;6.808;2024-02-15T11:27:29;0.82;;;0.57;;
62616;SDS011;76316;51.190;6.808;2024-02-15T11:35:13;1.85;;;0.80;;
62616;SDS011;76316;51.190;6.808;2024-02-15T11:43:06;1.45;;;0.80;;
62616;SDS011;76316;51.190;6.808;2024-02-15T11:45:33;1.40;;;0.70;;
62616;SDS011;76316;51.190;6.808;2024-02-15T11:48:09;0.70;;;0.65;;
62616;SDS011;76316;51.190;6.808;2024-02-15T11:50:37;1.80;;;0.70;;
62616;SDS011;76316;51.190;6.808;2024-02-15T11:53:07;1.27;;;0.70;;
62616;SDS011;76316;51.190;6.808;2024-02-15T11:55:37;2.93;;;0.60;;
62616;SDS011;76316;51.190;6.808;2024-02-15T11:58:03;2.25;;;0.75;;
62616;SDS011;76316;51.190;6.808;2024-02-15T12:00:33;1.70;;;0.73;;
62616;SDS011;76316;51.190;6.808;2024-02-15T12:03:20;3.63;;;0.68;;
62616;SDS011;76316;51.190;6.808;2024-02-15T12:06:04;0.90;;;0.68;;
62616;SDS011;76316;51.190;6.808;2024-02-15T12:08:51;3.60;;;0.70;;
62616;SDS011;76316;51.190;6.808;2024-02-15T12:11:37;1.13;;;0.60;;
62616;SDS011;76316;51.190;6.808;2024-02-15T12:14:22;6.40;;;0.75;;
62616;SDS011;76316;51.190;6.808;2024-02-15T12:17:08;1.38;;;0.77;;
62616;SDS011;76316;51.190;6.808;2024-02-15T12:19:57;3.97;;;0.82;;
62616;SDS011;76316;51.190;6.808;2024-02-15T12:22:32;1.23;;;0.60;;
62616;SDS011;76316;51.190;6.808;2024-02-15T12:25:05;5.53;;;0.70;;
62616;SDS011;76316;51.190;6.808;2024-02-15T12:27:39;0.88;;;0.70;;
62616;SDS011;76316;51.190;6.808;2024-02-15T12:30:08;6.70;;;0.88;;
62616;SDS011;76316;51.190;6.808;2024-02-15T12:32:39;3.05;;;0.90;;
62616;SDS011;76316;51.190;6.808;2024-02-15T12:35:11;2.67;;;1.20;;
62616;SDS011;76316;51.190;6.808;2024-02-15T12:37:44;7.22;;;1.00;;
62616;SDS011;76316;51.190;6.808;2024-02-15T12:40:16;1.83;;;0.90;;
62616;SDS011;76316;51.190;6.808;2024-02-15T12:42:43;4.25;;;1.08;;
62616;SDS011;76316;51.190;6.808;2024-02-15T12:45:19;2.10;;;1.08;;
62616;SDS011;76316;51.190;6.808;2024-02-15T12:47:52;6.82;;;0.90;;
62616;SDS011;76316;51.190;6.808;2024-02-15T12:50:20;3.22;;;1.15;;
62616;SDS011;76316;51.190;6.808;2024-02-15T12:52:48;5.55;;;1.15;;
62616;SDS011;76316;51.190;6.808;2024-02-15T12:55:15;3.30;;;1.00;;
62616;SDS011;76316;51.190;6.808;2024-02-15T12:57:41;2.10;;;0.82;;
62616;SDS011;76316;51.190;6.808;2024-02-15T13:00:14;2.90;;;0.90;;
62616;SDS011;76316;51.190;6.808;2024-02-15T13:02:45;4.22;;;0.90;;
62616;SDS011;76316;51.190;6.808;2024-02-15T13:05:16;2.92;;;1.20;;
62616;SDS011;76316;51.190;6.808;2024-02-15T13:07:45;3.35;;;0.90;;
62616;SDS011;76316;51.190;6.808;2024-02-15T13:10:11;6.93;;;0.98;;
62616;SDS011;76316;51.190;6.808;2024-02-15T13:12:41;2.20;;;0.90;;
62616;SDS011;76316;51.190;6.808;2024-02-15T13:15:09;2.00;;;0.80;;
62616;SDS011;76316;51.190;6.808;2024-02-15T13:18:02;1.65;;;0.90;;
62616;SDS011;76316;51.190;6.808;2024-02-15T13:20:29;8.05;;;0.98;;
62616;SDS011;76316;51.190;6.808;2024-02-15T13:22:57;4.18;;;1.40;;
62616;SDS011;76316;51.190;6.808;2024-02-15T13:25:33;5.53;;;1.17;;
62616;SDS011;76316;51.190;6.808;2024-02-15T13:28:01;2.75;;;0.90;;
62616;SDS011;76316;51.190;6.808;2024-02-15T13:30:27;2.35;;;0.85;;
62616;SDS011;76316;51.190;6.808;2024-02-15T13:32:53;2.30;;;0.80;;
62616;SDS011;76316;51.190;6.808;2024-02-15T13:35:19;3.67;;;1.08;;
62616;SDS011;76316;51.190;6.808;2024-02-15T13:37:48;1.92;;;1.00;;
62616;SDS011;76316;51.190;6.808;2024-02-15T13:40:15;3.40;;;0.83;;
62616;SDS011;76316;51.190;6.808;2024-02-15T13:42:42;2.38;;;0.90;;
62616;SDS011;76316;51.190;6.808;2024-02-15T13:45:14;1.90;;;0.88;;
62616;SDS011;76316;51.190;6.808;2024-02-15T13:47:50;2.65;;;0.90;;
62616;SDS011;76316;51.190;6.808;2024-02-15T13:50:16;1.60;;;0.90;;
62616;SDS011;76316;51.190;6.808;2024-02-15T13:52:42;2.25;;;1.00;;
62616;SDS011;76316;51.190;6.808;2024-02-15T13:55:10;3.35;;;1.02;;
62616;SDS011;76316;51.190;6.808;2024-02-15T13:57:41;2.38;;;0.75;;
62616;SDS011;76316;51.190;6.808;2024-02-15T14:00:08;6.38;;;0.90;;
62616;SDS011;76316;51.190;6.808;2024-02-15T14:02:42;2.17;;;1.08;;
62616;SDS011;76316;51.190;6.808;2024-02-15T14:05:10;1.30;;;0.77;;
62616;SDS011;76316;51.190;6.808;2024-02-15T14:07:36;1.20;;;0.75;;
62616;SDS011;76316;51.190;6.808;2024-02-15T14:10:06;6.03;;;1.50;;
62616;SDS011;76316;51.190;6.808;2024-02-15T14:12:32;1.42;;;0.75;;
62616;SDS011;76316;51.190;6.808;2024-02-15T14:14:59;1.85;;;0.95;;
62616;SDS011;76316;51.190;6.808;2024-02-15T14:17:25;4.20;;;0.80;;
62616;SDS011;76316;51.190;6.808;2024-02-15T14:19:53;3.45;;;1.17;;
62616;SDS011;76316;51.190;6.808;2024-02-15T14:22:18;1.52;;;0.77;;
62616;SDS011;76316;51.190;6.808;2024-02-15T14:24:48;4.25;;;0.90;;
62616;SDS011;76316;51.190;6.808;2024-02-15T14:27:14;2.70;;;1.00;;
62616;SDS011;76316;51.190;6.808;2024-02-15T14:29:39;1.02;;;0.75;;
62616;SDS011;76316;51.190;6.808;2024-02-15T14:32:25;5.70;;;1.10;;
62616;SDS011;76316;51.190;6.808;2024-02-15T14:35:09;5.15;;;1.10;;
62616;SDS011;76316;51.190;6.808;2024-02-15T14:37:35;2.25;;;0.95;;
62616;SDS011;76316;51.190;6.808;2024-02-15T14:40:01;3.13;;;0.80;;
62616;SDS011;76316;51.190;6.808;2024-02-15T14:42:28;1.75;;;0.90;;
62616;SDS011;76316;51.190;6.808;2024-02-15T14:44:53;1.60;;;0.80;;
62616;SDS011;76316;51.190;6.808;2024-02-15T14:47:19;4.53;;;0.93;;
62616;SDS011;76316;51.190;6.808;2024-02-15T14:49:45;1.60;;;0.93;;
62616;SDS011;76316;51.190;6.808;2024-02-15T14:52:11;8.73;;;0.90;;
62616;SDS011;76316;51.190;6.808;2024-02-15T14:54:37;2.33;;;0.88;;
62616;SDS011;76316;51.190;6.808;2024-02-15T14:57:03;3.05;;;1.10;;
62616;SDS011;76316;51.190;6.808;2024-02-15T14:59:30;3.10;;;0.88;;
62616;SDS011;76316;51.190;6.808;2024-02-15T15:01:55;5.07;;;0.93;;
62616;SDS011;76316;51.190;6.808;2024-02-15T15:04:22;1.70;;;0.90;;
62616;SDS011;76316;51.190;6.808;2024-02-15T15:06:48;7.30;;;1.00;;
62616;SDS011;76316;51.190;6.808;2024-02-15T15:09:32;2.13;;;0.80;;
62616;SDS011;76316;51.190;6.808;2024-02-15T15:12:20;2.42;;;0.85;;
62616;SDS011;76316;51.190;6.808;2024-02-15T15:15:01;4.63;;;0.70;;
62616;SDS011;76316;51.190;6.808;2024-02-15T15:17:30;2.40;;;1.00;;
62616;SDS011;76316;51.190;6.808;2024-02-15T15:19:55;1.25;;;0.73;;
62616;SDS011;76316;51.190;6.808;2024-02-15T15:22:20;3.10;;;0.95;;
62616;SDS011;76316;51.190;6.808;2024-02-15T15:24:46;2.45;;;0.75;;